Time;durP1;ratioP1;P1;durP2;ratioP2;P2;SDS_P1;SDS_P2;PMS_P1;PMS_P2;Temp;Humidity;BMP_temperature;BMP_pressure;BME280_temperature;BME280_humidity;BME280_pressure;Samples;Min_cycle;Max_cycle;Signal;HPM_P1;HPM_P2
2022/04/05 00:01:15;;;;;;;4.87;3.13;;;;;;;5.16;30.25;98165.97;5079538;28;20040;-63
2022/04/05 00:03:41;;;;;;;6.83;3.10;;;;;;;4.91;30.92;98160.78;5113255;28;20046;-63
2022/04/05 00:06:09;;;;;;;5.80;3.37;;;;;;;4.85;31.08;98164.03;5095813;28;20043;-64
2022/04/05 00:08:34;;;;;;;7.80;3.70;;;;;;;4.74;31.16;98162.50;5112971;28;20054;-64
2022/04/05 00:11:00;;;;;;;8.10;3.40;;;;;;;4.51;31.37;98132.50;5096307;28;20043;-64
2022/04/05 00:13:29;;;;;;;8.80;3.67;;;;;;;4.57;31.61;98144.19;5079987;28;20389;-63
2022/04/05 00:16:47;;;;;;;4.33;2.87;;;;;;;4.82;31.63;98156.47;5096281;28;20077;-64
2022/04/05 00:19:13;;;;;;;8.10;3.60;;;;;;;4.49;31.70;98152.03;5112420;28;20513;-63
2022/04/05 00:21:40;;;;;;;3.93;2.87;;;;;;;4.50;31.55;98137.91;5095803;28;20118;-63
2022/04/05 00:24:05;;;;;;;5.13;3.30;;;;;;;4.40;32.04;98145.06;5112553;28;20104;-64
2022/04/05 00:26:32;;;;;;;8.07;3.40;;;;;;;4.31;32.23;98151.25;5095634;28;20519;-64
2022/04/05 00:28:57;;;;;;;6.67;3.10;;;;;;;4.43;32.09;98157.91;5112568;28;20046;-64
2022/04/05 00:31:23;;;;;;;5.60;3.63;;;;;;;4.39;32.09;98156.56;5095821;28;20040;-64
2022/04/05 00:33:49;;;;;;;8.00;3.37;;;;;;;4.14;32.13;98129.31;5112401;28;20067;-64
2022/04/05 00:36:14;;;;;;;13.77;3.57;;;;;;;4.21;32.26;98113.78;5095249;28;20071;-64
2022/04/05 00:38:40;;;;;;;5.60;3.33;;;;;;;4.44;32.06;98138.53;5112060;28;20035;-64
2022/04/05 00:41:06;;;;;;;6.10;3.43;;;;;;;4.39;32.12;98140.81;5093692;28;20047;-65
2022/04/05 00:43:32;;;;;;;6.23;3.37;;;;;;;4.39;32.12;98144.25;5093073;28;20054;-64
2022/04/05 00:45:57;;;;;;;6.87;3.70;;;;;;;4.39;31.99;98141.63;5109820;28;20046;-68
2022/04/05 00:48:50;;;;;;;5.87;3.40;;;;;;;4.72;31.75;98135.53;5093366;28;20055;-65
2022/04/05 00:51:16;;;;;;;4.30;3.23;;;;;;;4.39;31.71;98111.88;5109686;28;20570;-64
2022/04/05 00:53:46;;;;;;;7.00;3.50;;;;;;;4.49;32.31;98146.78;5092252;28;20035;-64
2022/04/05 00:56:14;;;;;;;5.60;3.33;;;;;;;4.54;32.33;98136.59;5075786;28;20083;-66
2022/04/05 00:58:42;;;;;;;8.03;3.63;;;;;;;4.31;32.24;98115.31;5093520;28;20051;-65
2022/04/05 01:01:09;;;;;;;8.03;3.30;;;;;;;4.35;32.51;98124.50;5077233;28;20050;-64
2022/04/05 01:03:36;;;;;;;6.53;3.80;;;;;;;4.27;32.53;98126.28;5093195;28;20048;-64
2022/04/05 01:06:04;;;;;;;6.97;3.73;;;;;;;4.29;32.61;98126.97;5111553;28;20134;-64
2022/04/05 01:08:30;;;;;;;7.87;4.50;;;;;;;4.07;32.80;98109.91;5111214;28;20055;-64
2022/04/05 01:10:56;;;;;;;7.33;4.30;;;;;;;4.30;32.73;98118.09;5112054;28;20043;-63
2022/04/05 01:13:22;;;;;;;6.97;4.47;;;;;;;4.08;32.57;98116.81;5111469;28;20076;-63
2022/04/05 01:15:47;;;;;;;10.13;4.40;;;;;;;3.97;32.71;98085.53;5111450;28;20078;-64
2022/04/05 01:18:14;;;;;;;9.27;4.10;;;;;;;3.81;33.17;98077.56;5061250;28;20039;-64
2022/04/05 01:20:39;;;;;;;9.17;4.43;;;;;;;4.03;33.22;98103.31;5112565;28;20047;-63
2022/04/05 01:23:05;;;;;;;8.73;4.50;;;;;;;4.05;32.86;98114.50;5113100;28;20055;-63
2022/04/05 01:25:31;;;;;;;6.83;3.90;;;;;;;4.05;33.17;98108.41;5111254;28;20108;-64
2022/04/05 01:27:57;;;;;;;6.43;3.67;;;;;;;3.97;33.13;98103.09;5111857;28;20130;-63
2022/04/05 01:30:23;;;;;;;6.43;3.80;;;;;;;3.79;33.24;98074.25;5128061;27;20050;-63
2022/04/05 01:32:49;;;;;;;5.53;3.80;;;;;;;4.10;33.36;98104.34;5128546;27;20039;-64
2022/04/05 01:35:15;;;;;;;8.50;3.63;;;;;;;3.91;33.34;98104.53;5111122;28;20054;-63
2022/04/05 01:37:42;;;;;;;10.97;3.53;;;;;;;4.00;33.41;98105.44;5112607;28;20122;-63
2022/04/05 01:40:08;;;;;;;4.83;3.33;;;;;;;4.00;33.59;98106.25;5110989;28;20061;-64
2022/04/05 01:42:34;;;;;;;6.20;3.37;;;;;;;3.95;33.61;98118.19;5110960;28;20116;-63
2022/04/05 01:45:01;;;;;;;6.17;3.27;;;;;;;3.93;33.55;98120.97;5111178;28;20093;-66
2022/04/05 01:47:27;;;;;;;6.60;3.03;;;;;;;3.73;33.82;98077.50;5111589;28;20043;-63
2022/04/05 01:49:53;;;;;;;4.13;2.50;;;;;;;3.85;33.78;98114.81;5110909;28;20515;-63
2022/04/05 01:52:19;;;;;;;5.63;3.10;;;;;;;3.90;33.87;98116.03;5112033;28;20080;-63
2022/04/05 01:54:45;;;;;;;6.60;2.63;;;;;;;3.91;33.90;98101.91;5093779;28;20130;-63
2022/04/05 01:57:11;;;;;;;6.17;2.63;;;;;;;3.80;33.89;98089.03;5110676;28;20043;-64
2022/04/05 01:59:39;;;;;;;6.70;3.03;;;;;;;4.05;33.77;98103.97;5076707;28;20047;-63
2022/04/05 02:02:06;;;;;;;10.83;2.87;;;;;;;4.05;33.79;98105.78;5076788;28;20035;-64
2022/04/05 02:04:31;;;;;;;7.60;2.90;;;;;;;3.88;33.85;98083.00;5093818;28;20135;-67
2022/04/05 02:06:57;;;;;;;4.53;2.63;;;;;;;4.02;33.99;98091.16;5093099;28;20139;-63
2022/04/05 02:09:31;;;;;;;7.70;2.40;;;;;;;4.18;34.02;98087.81;5093580;28;20071;-63
2022/04/05 02:11:56;;;;;;;3.83;2.50;;;;;;;3.85;33.75;98093.81;5111106;28;20048;-63
2022/04/05 02:14:43;;;;;;;3.23;2.20;;;;;;;3.99;34.01;98095.88;5093203;28;20063;-63
2022/04/05 02:17:14;;;;;;;4.60;2.57;;;;;;;3.72;34.07;98061.91;5094655;28;20044;-63
2022/04/05 02:19:43;;;;;;;7.77;3.47;;;;;;;3.83;34.16;98098.41;5094073;28;20047;-63
2022/04/05 02:22:13;;;;;;;6.40;2.50;;;;;;;3.79;34.22;98073.44;5078114;28;20039;-65
2022/04/05 02:24:39;;;;;;;3.37;2.30;;;;;;;3.83;34.17;98080.03;5110426;28;20108;-63
2022/04/05 02:27:07;;;;;;;7.33;2.60;;;;;;;3.78;34.22;98083.13;5093359;28;20043;-64
2022/04/05 02:29:37;;;;;;;4.60;2.20;;;;;;;3.91;34.57;98077.44;5093221;28;20062;-64
2022/04/05 02:32:11;;;;;;;7.73;2.63;;;;;;;3.69;34.64;98080.59;5077406;28;20051;-64
2022/04/05 02:34:39;;;;;;;4.67;2.53;;;;;;;3.75;34.61;98082.59;5109767;28;20536;-63
2022/04/05 02:37:05;;;;;;;3.67;2.27;;;;;;;3.74;34.38;98076.53;5092629;28;20088;-64
2022/04/05 02:39:34;;;;;;;2.40;2.17;;;;;;;3.48;34.64;98033.69;5110727;28;20057;-66
2022/04/05 02:42:02;;;;;;;4.70;2.60;;;;;;;3.64;34.82;98064.47;5092885;28;20523;-63
2022/04/05 02:44:33;;;;;;;5.20;2.60;;;;;;;3.71;34.90;98062.88;5109621;28;20058;-63
2022/04/05 02:47:02;;;;;;;13.07;5.18;;;;;;;3.53;34.86;98044.53;5110536;28;20493;-64
2022/04/05 02:49:31;;;;;;;7.80;2.60;;;;;;;3.62;34.94;98064.63;5109768;28;20059;-63
2022/04/05 02:51:58;;;;;;;4.53;2.27;;;;;;;3.50;34.88;98029.09;5109477;28;20523;-63
2022/04/05 02:54:31;;;;;;;3.17;2.20;;;;;;;3.55;35.24;98063.59;5126806;27;20044;-63
2022/04/05 02:57:00;;;;;;;3.30;2.13;;;;;;;3.55;35.14;98078.50;5110478;28;20108;-63
2022/04/05 02:59:26;;;;;;;3.73;2.30;;;;;;;3.53;35.09;98039.28;5092553;28;20032;-63
2022/04/05 03:01:52;;;;;;;2.87;2.23;;;;;;;3.71;35.08;98068.13;5092413;28;20096;-63
2022/04/05 03:04:20;;;;;;;3.77;2.60;;;;;;;3.59;35.29;98064.09;5076175;28;20572;-64
2022/04/05 03:06:47;;;;;;;4.10;2.37;;;;;;;3.33;35.46;98036.03;5059228;28;20039;-62
2022/04/05 03:09:13;;;;;;;5.07;2.37;;;;;;;3.60;35.35;98061.31;5109035;28;20497;-64
2022/04/05 03:11:39;;;;;;;5.93;3.07;;;;;;;3.41;35.73;98062.31;5109208;28;20043;-63
2022/04/05 03:14:07;;;;;;;3.33;2.40;;;;;;;3.52;35.70;98065.69;5092172;28;20040;-64
2022/04/05 03:16:37;;;;;;;5.43;2.37;;;;;;;3.58;35.71;98051.97;5110293;28;20032;-63
2022/04/05 03:19:05;;;;;;;;;;;;;;;3.85;35.30;98071.03;5101220;28;20048;-63
2022/04/05 03:21:32;;;;;;;3.90;2.60;;;;;;;3.48;35.67;98070.41;5065936;28;19920;-63
2022/04/05 03:23:58;;;;;;;5.70;2.67;;;;;;;3.42;35.97;98057.91;5098717;28;20191;-63
2022/04/05 03:26:24;;;;;;;11.77;3.20;;;;;;;3.55;35.88;98063.59;5098672;28;20039;-63
2022/04/05 03:28:50;;;;;;;5.00;2.80;;;;;;;3.60;35.79;98069.19;5116092;28;20104;-64
2022/04/05 03:31:15;;;;;;;4.07;2.40;;;;;;;3.41;35.67;98038.69;5082421;28;20043;-64
2022/04/05 03:33:46;;;;;;;2.92;2.60;;;;;;;3.67;35.72;98072.03;5116317;28;20039;-63
2022/04/05 03:36:13;;;;;;;5.77;2.50;;;;;;;3.62;35.76;98069.03;5116094;28;20044;-63
2022/04/05 03:38:39;;;;;;;3.03;2.57;;;;;;;3.77;35.79;98070.97;5116089;28;20055;-64
2022/04/05 03:41:05;;;;;;;5.27;2.73;;;;;;;3.67;35.46;98030.03;5083045;28;20047;-63
2022/04/05 03:43:31;;;;;;;6.63;3.00;;;;;;;3.95;35.39;98076.97;5099326;28;20047;-63
2022/04/05 03:45:57;;;;;;;4.17;2.77;;;;;;;3.87;35.47;98055.94;5100115;28;20036;-63
2022/04/05 03:48:26;;;;;;;6.67;2.50;;;;;;;3.94;35.21;98056.97;5082704;28;20097;-63
2022/04/05 03:50:53;;;;;;;6.90;2.70;;;;;;;4.02;35.08;98056.19;5099265;28;20066;-64
2022/04/05 03:53:20;;;;;;;7.03;2.73;;;;;;;4.01;35.36;98063.25;5098931;28;20134;-64
2022/04/05 03:55:46;;;;;;;5.00;2.80;;;;;;;3.88;35.67;98048.88;5098935;28;20066;-63
2022/04/05 03:58:13;;;;;;;4.70;2.73;;;;;;;3.94;35.41;98048.25;5098795;28;20138;-64
2022/04/05 04:00:40;;;;;;;5.87;3.10;;;;;;;3.97;35.43;98055.81;5115875;28;20049;-64
2022/04/05 04:03:25;;;;;;;6.97;2.80;;;;;;;4.00;35.37;98039.78;5115846;28;20040;-64
2022/04/05 04:05:53;;;;;;;5.63;2.70;;;;;;;4.24;35.44;98050.41;5115796;28;20047;-63
2022/04/05 04:08:19;;;;;;;4.43;2.57;;;;;;;3.97;35.67;98050.56;5099072;28;20071;-63
2022/04/05 04:10:48;;;;;;;5.27;2.60;;;;;;;3.99;35.63;98059.94;5099051;28;20496;-64
2022/04/05 04:13:17;;;;;;;5.78;2.92;;;;;;;4.10;35.81;98061.47;5116554;27;20039;-64
2022/04/05 04:15:46;;;;;;;4.20;2.73;;;;;;;4.13;35.56;98053.28;5082766;28;20043;-65
2022/04/05 04:18:13;;;;;;;5.33;3.00;;;;;;;4.23;35.72;98067.97;5098869;28;20036;-64
2022/04/05 04:20:42;;;;;;;5.37;2.83;;;;;;;4.17;35.57;98044.94;5082436;28;20126;-64
2022/04/05 04:23:10;;;;;;;7.13;3.23;;;;;;;4.38;35.54;98053.25;5115985;28;20062;-66
2022/04/05 04:25:39;;;;;;;6.30;2.80;;;;;;;4.25;35.67;98044.16;5081860;28;20100;-63
2022/04/05 04:28:08;;;;;;;6.97;3.00;;;;;;;4.45;35.43;98037.66;5117085;27;20040;-63
2022/04/05 04:30:35;;;;;;;7.07;3.07;;;;;;;4.33;35.84;98046.81;5094698;28;20118;-63
2022/04/05 04:33:01;;;;;;;5.87;3.20;;;;;;;4.48;35.57;98047.88;5095519;28;20050;-64
2022/04/05 04:35:28;;;;;;;4.67;2.80;;;;;;;4.53;35.63;98041.16;5078468;28;20439;-63
2022/04/05 04:37:54;;;;;;;12.70;3.23;;;;;;;4.47;35.59;98030.47;5112419;28;20043;-64
2022/04/05 04:40:20;;;;;;;5.37;2.57;;;;;;;4.70;35.28;98050.75;5112082;28;20043;-64
2022/04/05 04:42:46;;;;;;;4.63;2.93;;;;;;;4.81;35.07;98070.66;5112148;28;20077;-64
2022/04/05 04:45:12;;;;;;;6.83;3.27;;;;;;;4.75;34.95;98014.25;5095143;28;20140;-64
2022/04/05 04:47:38;;;;;;;6.40;3.47;;;;;;;4.91;34.60;98016.09;5061799;28;20050;-64
2022/04/05 04:50:06;;;;;;;6.77;3.40;;;;;;;5.22;34.72;98048.72;5112006;28;20046;-64
2022/04/05 04:52:31;;;;;;;7.60;3.60;;;;;;;5.01;34.69;98022.06;5078043;28;20044;-64
2022/04/05 04:54:57;;;;;;;11.30;2.93;;;;;;;5.09;34.69;98048.34;5078486;28;20488;-64
2022/04/05 04:57:23;;;;;;;8.83;3.00;;;;;;;5.08;34.75;98062.50;5078107;28;20044;-66
2022/04/05 04:59:57;;;;;;;6.77;3.60;;;;;;;5.39;34.64;98054.81;5078007;28;20047;-64
2022/04/05 05:02:22;;;;;;;6.33;2.93;;;;;;;5.12;34.92;98048.84;5077822;28;20094;-64
2022/04/05 05:04:51;;;;;;;4.87;3.23;;;;;;;5.30;35.13;98061.88;5094720;28;20048;-64
2022/04/05 05:07:17;;;;;;;6.70;2.90;;;;;;;5.27;34.89;98054.31;5077594;28;20071;-64
2022/04/05 05:09:43;;;;;;;7.17;3.00;;;;;;;5.44;34.65;98057.78;5077784;28;20070;-65
2022/04/05 05:12:12;;;;;;;4.27;3.00;;;;;;;5.46;34.76;98067.13;5112051;28;20062;-65
2022/04/05 05:14:38;;;;;;;6.47;3.00;;;;;;;5.40;34.68;98030.94;5094997;28;20412;-64
2022/04/05 05:17:05;;;;;;;5.00;3.23;;;;;;;5.64;34.48;98049.38;5095138;28;20040;-64
2022/04/05 05:19:31;;;;;;;7.03;3.27;;;;;;;5.62;34.50;98025.03;5112846;28;20446;-64
2022/04/05 05:21:57;;;;;;;4.77;3.17;;;;;;;5.80;34.22;98049.34;5077525;28;20071;-63
2022/04/05 05:24:22;;;;;;;8.70;3.40;;;;;;;5.85;33.94;98052.34;5077639;28;20079;-65
2022/04/05 05:26:48;;;;;;;10.27;3.10;;;;;;;5.93;33.85;98044.44;5061747;28;20093;-72
2022/04/05 05:29:15;;;;;;;3.73;2.87;;;;;;;6.07;33.70;98056.09;5095938;28;20092;-74
2022/04/05 05:31:41;;;;;;;4.23;2.83;;;;;;;6.21;33.88;98048.31;5078480;28;20048;-70
2022/04/05 05:34:07;;;;;;;6.13;3.00;;;;;;;6.15;33.66;98030.53;5078186;28;20039;-69
2022/04/05 05:36:33;;;;;;;8.13;3.10;;;;;;;6.28;33.65;98045.81;5094269;28;20066;-66
2022/04/05 05:38:58;;;;;;;8.97;3.73;;;;;;;6.33;33.70;98056.69;5060795;28;20096;-66
2022/04/05 05:41:24;;;;;;;7.03;3.50;;;;;;;6.39;33.53;98042.81;5093163;28;20174;-69
2022/04/05 05:43:50;;;;;;;4.07;3.10;;;;;;;6.37;33.68;98061.44;5077230;28;20041;-71
2022/04/05 05:46:16;;;;;;;9.27;3.40;;;;;;;6.23;33.80;98014.69;5111182;28;20054;-69
2022/04/05 05:48:42;;;;;;;5.90;3.30;;;;;;;6.58;33.66;98037.16;5094336;28;20043;-70
2022/04/05 05:51:08;;;;;;;6.13;3.03;;;;;;;6.63;33.33;98014.53;5111454;28;20420;-69
2022/04/05 05:53:34;;;;;;;5.53;3.40;;;;;;;6.82;33.34;98032.56;5093684;28;20321;-69
2022/04/05 05:56:00;;;;;;;4.93;3.30;;;;;;;6.92;33.11;98010.41;5100904;28;20568;-67
2022/04/05 05:58:27;;;;;;;7.23;3.90;;;;;;;7.10;32.79;98011.78;5067078;28;20043;-70
2022/04/05 06:00:52;;;;;;;4.13;2.77;;;;;;;6.97;32.55;98031.81;5109683;28;20046;-67
2022/04/05 06:03:18;;;;;;;7.70;3.00;;;;;;;7.15;32.67;98013.91;5092084;28;20048;-72
2022/04/05 06:05:45;;;;;;;13.13;3.83;;;;;;;7.23;32.18;97984.78;5075387;28;20039;-68
2022/04/05 06:08:13;;;;;;;6.07;3.07;;;;;;;7.38;32.08;98007.59;5075462;28;20409;-69
2022/04/05 06:10:38;;;;;;;9.53;2.93;;;;;;;7.57;31.82;98012.38;5066510;28;20527;-70
2022/04/05 06:13:05;;;;;;;8.77;2.90;;;;;;;7.65;31.88;98028.19;5089489;28;20040;-73
2022/04/05 06:15:34;;;;;;;6.73;2.73;;;;;;;7.73;31.73;98006.97;5090141;28;20050;-68
2022/04/05 06:18:02;;;;;;;7.13;3.10;;;;;;;7.84;31.63;98018.91;5056755;28;20062;-71
2022/04/05 06:20:35;;;;;;;7.03;3.20;;;;;;;7.96;31.20;98014.81;5073803;28;20044;-72
2022/04/05 06:23:02;;;;;;;5.47;3.13;;;;;;;8.05;31.41;98021.66;5073736;28;20043;-71
2022/04/05 06:25:33;;;;;;;6.73;3.20;;;;;;;8.20;31.46;98003.97;5056611;28;20039;-67
2022/04/05 06:28:03;;;;;;;6.45;3.35;;;;;;;8.16;30.90;98040.53;5101980;28;20044;-66
2022/04/05 06:30:30;;;;;;;9.10;2.90;;;;;;;8.41;30.89;98004.13;5092628;28;20051;-72
2022/04/05 06:33:10;;;;;;;4.40;2.70;;;;;;;8.42;30.57;98021.63;5075025;28;20089;-65
2022/04/05 06:35:44;;;;;;;8.00;3.07;;;;;;;8.32;30.13;97991.97;5082270;28;20176;-66
2022/04/05 06:38:10;;;;;;;9.07;3.03;;;;;;;8.88;29.18;98019.53;5073020;28;20039;-69
2022/04/05 06:40:36;;;;;;;6.30;2.87;;;;;;;9.08;29.28;98004.66;5074955;28;21448;-67
2022/04/05 06:43:02;;;;;;;4.60;2.67;;;;;;;9.14;29.22;97998.63;5089398;28;20558;-68
2022/04/05 06:45:29;;;;;;;8.43;3.10;;;;;;;9.20;28.83;97997.88;5057120;28;20101;-67
2022/04/05 06:47:55;;;;;;;5.03;2.72;;;;;;;9.18;29.13;98018.44;5100319;28;20039;-65
2022/04/05 06:50:24;;;;;;;8.30;3.00;;;;;;;9.05;29.08;98003.22;5090223;28;20084;-68
2022/04/05 06:52:55;;;;;;;6.37;2.90;;;;;;;9.09;29.03;98015.06;5056555;28;20043;-70
2022/04/05 06:55:20;;;;;;;5.43;2.85;;;;;;;9.12;28.98;98000.66;5105724;28;20088;-71
2022/04/05 06:57:49;;;;;;;6.47;3.20;;;;;;;9.10;29.02;98051.13;5087931;28;20036;-71
2022/04/05 07:00:17;;;;;;;4.80;3.27;;;;;;;9.19;29.29;98007.66;5105535;28;20047;-71
2022/04/05 07:02:43;;;;;;;6.87;3.30;;;;;;;9.34;28.82;98049.97;5089201;28;20126;-72
2022/04/05 07:05:14;;;;;;;8.02;3.35;;;;;;;9.37;28.42;98026.56;5072866;28;20134;-69
2022/04/05 07:07:40;;;;;;;8.35;3.13;;;;;;;9.42;28.49;98004.81;5107593;28;20043;-71
2022/04/05 07:10:08;;;;;;;7.05;3.10;;;;;;;9.64;28.02;98001.13;5090626;28;20035;-71
2022/04/05 07:12:34;;;;;;;5.10;3.00;;;;;;;9.74;28.02;97991.00;5074586;28;20504;-69
2022/04/05 07:15:02;;;;;;;8.57;3.42;;;;;;;9.87;27.66;98029.03;5076209;28;20055;-71
2022/04/05 07:17:28;;;;;;;4.90;3.20;;;;;;;10.05;27.49;98037.34;5077030;28;20089;-71
2022/04/05 07:19:54;;;;;;;6.22;2.72;;;;;;;10.28;26.61;97989.34;5092819;28;20116;-70
2022/04/05 07:22:20;;;;;;;16.52;3.28;;;;;;;10.73;26.51;98025.09;5109726;28;20043;-71
2022/04/05 07:24:46;;;;;;;8.75;3.17;;;;;;;10.90;26.02;97970.63;5093034;28;20066;-72
2022/04/05 07:27:13;;;;;;;5.65;3.05;;;;;;;10.98;25.69;97973.09;5058772;28;20048;-73
2022/04/05 07:29:39;;;;;;;5.15;3.03;;;;;;;10.89;25.97;97998.19;5066643;28;20181;-72
2022/04/05 07:32:05;;;;;;;5.50;2.95;;;;;;;10.45;26.22;98005.78;5091601;28;20039;-72
2022/04/05 07:34:32;;;;;;;4.97;2.90;;;;;;;10.63;26.58;97969.72;5091116;28;20036;-71
2022/04/05 07:36:58;;;;;;;7.50;3.17;;;;;;;10.58;25.92;98021.78;5108304;28;20066;-73
2022/04/05 07:39:24;;;;;;;6.30;2.80;;;;;;;10.60;26.20;97978.06;5076139;28;20078;-72
2022/04/05 07:41:50;;;;;;;9.40;3.22;;;;;;;11.09;25.81;97961.88;5075869;28;20047;-72
2022/04/05 07:44:16;;;;;;;5.55;3.17;;;;;;;11.79;24.84;97981.56;5075922;28;20044;-73
2022/04/05 07:46:42;;;;;;;9.52;3.13;;;;;;;12.40;23.74;97950.13;5058998;28;20134;-72
2022/04/05 07:49:08;;;;;;;5.00;3.25;;;;;;;12.85;22.88;97983.75;5085853;28;20180;-73
2022/04/05 07:51:33;;;;;;;6.65;3.25;;;;;;;13.19;22.30;97972.72;5075630;28;20036;-73
2022/04/05 07:53:59;;;;;;;7.93;3.22;;;;;;;14.39;21.27;97967.78;5091730;28;20051;-73
2022/04/05 07:56:25;;;;;;;8.70;3.40;;;;;;;15.25;19.94;97987.06;5092157;28;20039;-73
2022/04/05 07:58:51;;;;;;;7.43;3.08;;;;;;;15.52;19.84;97940.16;5109160;28;20511;-73
2022/04/05 08:01:16;;;;;;;7.20;3.00;;;;;;;15.59;19.20;97962.25;5109127;28;20047;-73
2022/04/05 08:03:42;;;;;;;6.55;3.10;;;;;;;16.46;18.51;97932.72;5109630;28;20172;-73
2022/04/05 08:06:08;;;;;;;4.50;3.28;;;;;;;16.87;17.75;97938.91;5096154;28;20092;-74
2022/04/05 08:08:34;;;;;;;4.18;3.08;;;;;;;16.67;17.61;97953.53;5064263;28;20051;-74
2022/04/05 08:11:00;;;;;;;7.38;3.28;;;;;;;17.53;17.11;97915.69;5062455;28;20043;-74
2022/04/05 08:13:26;;;;;;;5.57;2.90;;;;;;;18.06;16.01;97961.66;5079296;28;20515;-73
2022/04/05 08:15:52;;;;;;;7.53;2.85;;;;;;;18.36;15.74;97920.94;5113576;27;20150;-73
2022/04/05 08:18:19;;;;;;;8.85;3.03;;;;;;;18.38;15.70;97924.25;5113302;28;20043;-74
2022/04/05 08:20:45;;;;;;;4.03;2.95;;;;;;;17.53;16.56;97936.38;5113712;28;20077;-74
2022/04/05 08:23:11;;;;;;;4.20;3.10;;;;;;;17.08;17.03;97948.94;5078431;28;20075;-74
2022/04/05 08:25:37;;;;;;;6.82;3.00;;;;;;;15.75;18.23;97939.38;5113272;28;20036;-73
2022/04/05 08:28:04;;;;;;;8.10;3.33;;;;;;;15.06;19.00;97940.84;5079830;28;20097;-73
2022/04/05 08:30:30;;;;;;;9.90;3.28;;;;;;;15.58;18.82;97920.50;5112139;28;20492;-72
2022/04/05 08:32:56;;;;;;;8.27;3.03;;;;;;;15.47;18.53;97945.38;5112983;28;20085;-73
2022/04/05 08:35:22;;;;;;;6.68;3.58;;;;;;;15.63;18.13;97931.34;5095935;28;20043;-73
2022/04/05 08:37:50;;;;;;;6.32;2.88;;;;;;;16.00;17.99;97923.91;5113721;28;20042;-73
2022/04/05 08:40:20;;;;;;;4.60;3.10;;;;;;;16.69;17.45;97923.78;5096078;28;20097;-73
2022/04/05 08:42:49;;;;;;;4.88;3.25;;;;;;;17.21;16.74;97922.63;5114122;28;20050;-74
2022/04/05 08:45:16;;;;;;;6.88;3.10;;;;;;;17.12;16.62;97934.81;5080031;28;20042;-74
2022/04/05 08:47:49;;;;;;;5.93;3.08;;;;;;;17.33;16.46;97925.28;5095971;28;20040;-75
2022/04/05 08:50:19;;;;;;;8.13;2.78;;;;;;;16.94;16.10;97900.16;5078565;28;20053;-74
2022/04/05 08:52:45;;;;;;;5.53;2.67;;;;;;;16.82;16.32;97902.88;5077776;28;20035;-72
2022/04/05 08:55:12;;;;;;;4.70;2.80;;;;;;;16.68;16.37;97939.06;5077793;28;20036;-73
2022/04/05 08:57:38;;;;;;;10.18;2.63;;;;;;;16.87;16.54;97906.72;5092841;28;20246;-73
2022/04/05 09:00:07;;;;;;;9.63;2.55;;;;;;;16.74;16.31;97954.19;5094488;28;20056;-73
2022/04/05 09:02:33;;;;;;;4.35;2.55;;;;;;;15.54;17.32;97950.63;5112104;28;20047;-72
2022/04/05 09:05:02;;;;;;;6.80;2.30;;;;;;;13.54;18.73;97936.56;5111840;28;20063;-73
2022/04/05 09:07:31;;;;;;;4.25;2.10;;;;;;;12.75;19.46;97915.94;5110869;28;20535;-72
2022/04/05 09:10:16;;;;;;;2.72;2.00;;;;;;;14.30;18.42;97904.22;5111498;28;20043;-72
2022/04/05 09:12:47;;;;;;;4.28;2.30;;;;;;;14.64;17.28;97931.13;5094812;28;20103;-73
2022/04/05 09:15:16;;;;;;;3.75;2.70;;;;;;;14.56;17.51;97970.69;5111356;28;20039;-74
2022/04/05 09:17:43;;;;;;;7.18;2.40;;;;;;;14.16;18.30;97873.34;5094677;28;20050;-73
2022/04/05 09:20:10;;;;;;;6.13;2.40;;;;;;;14.91;18.19;97939.63;5094654;28;20562;-73
2022/04/05 09:22:36;;;;;;;2.65;2.20;;;;;;;14.91;17.77;97929.72;5094629;28;20408;-72
2022/04/05 09:25:07;;;;;;;7.72;2.80;;;;;;;15.33;17.21;97911.81;5060802;28;20113;-72
2022/04/05 09:27:56;;;;;;;5.70;2.50;;;;;;;16.16;16.44;97917.84;5111300;28;20118;-72
2022/04/05 09:30:27;;;;;;;3.38;2.40;;;;;;;16.51;16.41;97913.25;5110341;28;20039;-75
2022/04/05 09:32:54;;;;;;;3.60;1.92;;;;;;;15.81;16.04;97915.16;5108203;28;20048;-73
2022/04/05 09:35:22;;;;;;;2.80;2.28;;;;;;;15.38;17.10;97871.03;5091777;28;20512;-73
2022/04/05 09:37:48;;;;;;;2.88;2.40;;;;;;;16.09;16.60;97852.84;5057853;28;20066;-72
2022/04/05 09:40:21;;;;;;;5.93;2.28;;;;;;;16.26;16.60;97920.72;5057222;28;20044;-73
2022/04/05 09:43:00;;;;;;;3.40;2.53;;;;;;;15.47;16.66;97901.78;5090847;28;20048;-72
2022/04/05 09:45:41;;;;;;;4.80;2.47;;;;;;;14.48;17.79;97907.72;5090326;28;20059;-73
2022/04/05 09:48:08;;;;;;;3.35;2.65;;;;;;;14.72;17.95;97841.81;5090028;28;20065;-73
2022/04/05 09:50:57;;;;;;;4.90;2.88;;;;;;;15.58;17.38;97858.13;5056941;28;20138;-72
2022/04/05 09:53:23;;;;;;;4.95;2.67;;;;;;;15.73;16.93;97886.06;5074704;28;20040;-72
2022/04/05 09:56:01;;;;;;;5.55;2.42;;;;;;;15.16;17.53;97879.59;5073686;28;20047;-72
2022/04/05 09:58:28;;;;;;;3.92;2.40;;;;;;;15.16;17.97;97871.56;5089603;28;20048;-72
2022/04/05 10:01:05;;;;;;;5.47;2.90;;;;;;;15.65;17.07;97834.78;5073090;28;20064;-75
2022/04/05 10:03:30;;;;;;;3.63;2.58;;;;;;;16.29;16.91;97843.38;5073218;28;20572;-71
2022/04/05 10:05:56;;;;;;;7.47;2.50;;;;;;;16.03;16.78;97899.31;5039932;28;20193;-73
2022/04/05 10:08:23;;;;;;;4.60;2.42;;;;;;;14.54;17.99;97866.75;5073154;28;20054;-72
2022/04/05 10:10:49;;;;;;;7.65;2.45;;;;;;;13.88;18.62;97865.88;5073568;28;20052;-72
2022/04/05 10:13:14;;;;;;;4.75;2.60;;;;;;;13.94;18.87;97872.16;5072742;28;20044;-72
2022/04/05 10:15:41;;;;;;;4.78;2.47;;;;;;;13.45;19.19;97835.72;5050578;28;20042;-70
2022/04/05 10:18:08;;;;;;;4.35;2.50;;;;;;;13.92;19.04;97843.03;5059693;28;20039;-70
2022/04/05 10:20:34;;;;;;;4.82;2.50;;;;;;;14.67;18.26;97868.38;5075200;28;20039;-70
2022/04/05 10:23:02;;;;;;;3.60;2.42;;;;;;;14.37;18.49;97824.84;5089759;28;20048;-69
2022/04/05 10:25:29;;;;;;;5.25;2.60;;;;;;;13.56;19.38;97835.00;5073015;28;20568;-70
2022/04/05 10:27:54;;;;;;;4.35;2.38;;;;;;;13.11;19.96;97849.56;5056196;28;20065;-75
2022/04/05 10:30:31;;;;;;;4.05;2.42;;;;;;;13.08;20.53;97850.81;5056039;28;20630;-68
2022/04/05 10:33:11;;;;;;;4.82;2.55;;;;;;;12.81;20.53;97856.50;5089498;28;20127;-72
2022/04/05 10:35:42;;;;;;;5.25;2.50;;;;;;;13.28;20.41;97830.13;5089505;28;20044;-69
2022/04/05 10:38:13;;;;;;;5.88;2.50;;;;;;;14.30;19.15;97840.16;5055919;28;20572;-73
2022/04/05 10:40:39;;;;;;;4.50;2.40;;;;;;;13.90;19.46;97820.28;5088653;28;20509;-70
2022/04/05 10:43:19;;;;;;;4.30;2.70;;;;;;;14.42;19.26;97796.41;5039071;28;20040;-71
2022/04/05 10:45:45;;;;;;;10.05;2.67;;;;;;;15.05;18.75;97842.94;5072587;28;20046;-69
2022/04/05 10:48:12;;;;;;;4.68;2.35;;;;;;;15.36;18.37;97819.63;5073106;28;20044;-70
2022/04/05 10:50:41;;;;;;;3.72;2.30;;;;;;;15.32;17.80;97856.72;5088492;28;20040;-69
2022/04/05 10:53:29;;;;;;;5.03;2.40;;;;;;;15.62;17.51;97795.09;5039422;28;20093;-72
2022/04/05 10:56:21;;;;;;;3.60;2.50;;;;;;;16.22;16.96;97837.34;5073441;28;20043;-71
2022/04/05 10:58:47;;;;;;;2.85;2.25;;;;;;;15.09;17.67;97824.59;5051502;28;20054;-68
2022/04/05 11:01:20;;;;;;;5.47;2.38;;;;;;;15.26;17.74;97844.25;5089757;28;20040;-70
2022/04/05 11:04:20;;;;;;;6.07;2.22;;;;;;;14.68;18.21;97811.25;5090876;28;20177;-72
2022/04/05 11:07:01;;;;;;;5.82;3.03;;;;;;;14.28;18.53;97816.34;5070884;28;20052;-70
2022/04/05 11:09:46;;;;;;;5.53;2.28;;;;;;;14.00;19.11;97796.53;5089587;28;20400;-75
2022/04/05 11:12:17;;;;;;;4.55;2.67;;;;;;;13.74;19.47;97824.34;5089170;28;20516;-73
2022/04/05 11:14:52;;;;;;;5.10;2.60;;;;;;;12.72;20.31;97818.66;5086892;28;20093;-73
2022/04/05 11:17:22;;;;;;;5.88;2.33;;;;;;;12.50;20.80;97801.38;5087233;28;20664;-71
2022/04/05 11:19:50;;;;;;;3.70;2.22;;;;;;;12.30;20.88;97792.69;5086447;28;20480;-72
2022/04/05 11:22:22;;;;;;;4.18;2.30;;;;;;;12.33;20.95;97775.50;5067760;28;20117;-71
2022/04/05 11:25:00;;;;;;;4.05;2.13;;;;;;;12.23;21.14;97823.88;5067783;28;20450;-71
2022/04/05 11:27:31;;;;;;;4.75;2.92;;;;;;;11.86;21.67;97827.28;5068466;28;20044;-72
2022/04/05 11:30:27;;;;;;;3.92;2.33;;;;;;;11.58;22.56;97789.50;5086728;28;20051;-73
2022/04/05 11:33:14;;;;;;;4.60;2.40;;;;;;;11.19;22.90;97755.06;5072367;28;20040;-71
2022/04/05 11:35:45;;;;;;;4.32;2.65;;;;;;;10.92;23.44;97819.84;5089327;28;20044;-71
2022/04/05 11:38:16;;;;;;;5.38;3.70;;;;;;;10.84;23.74;97798.81;5057235;28;20040;-71
2022/04/05 11:40:44;;;;;;;5.38;2.30;;;;;;;10.66;23.96;97803.91;5076100;28;20054;-69
2022/04/05 11:43:19;;;;;;;6.75;2.42;;;;;;;10.71;24.29;97780.22;5075916;28;20137;-70
2022/04/05 11:45:45;;;;;;;4.53;2.97;;;;;;;10.46;23.94;97808.34;5076082;28;20112;-69